sensor_id;sensor_type;location;lat;lon;timestamp;P1;durP1;ratioP1;P2;durP2;ratioP2
1062;SDS011;520;50.932;6.962;2023-04-24T00:01:50;0.70;;;0.70;;
1062;SDS011;520;50.932;6.962;2023-04-24T00:05:04;0.77;;;0.77;;
1062;SDS011;520;50.932;6.962;2023-04-24T00:07:40;1.20;;;1.10;;
1062;SDS011;520;50.932;6.962;2023-04-24T00:10:24;0.83;;;0.70;;
1062;SDS011;520;50.932;6.962;2023-04-24T00:13:06;1.00;;;0.90;;
1062;SDS011;520;50.932;6.962;2023-04-24T00:15:50;1.13;;;0.70;;
1062;SDS011;520;50.932;6.962;2023-04-24T00:18:26;0.80;;;0.80;;
1062;SDS011;520;50.932;6.962;2023-04-24T00:21:33;1.90;;;1.00;;
1062;SDS011;520;50.932;6.962;2023-04-24T00:24:15;0.87;;;0.87;;
1062;SDS011;520;50.932;6.962;2023-04-24T00:27:01;1.07;;;0.97;;
1062;SDS011;520;50.932;6.962;2023-04-24T00:29:33;1.10;;;1.00;;
1062;SDS011;520;50.932;6.962;2023-04-24T00:32:02;3.03;;;1.20;;
1062;SDS011;520;50.932;6.962;2023-04-24T00:34:47;0.70;;;0.70;;
1062;SDS011;520;50.932;6.962;2023-04-24T00:37:15;0.90;;;0.90;;
1062;SDS011;520;50.932;6.962;2023-04-24T00:39:47;1.13;;;1.03;;
1062;SDS011;520;50.932;6.962;2023-04-24T00:42:30;1.17;;;1.00;;
1062;SDS011;520;50.932;6.962;2023-04-24T00:45:15;0.80;;;0.80;;
1062;SDS011;520;50.932;6.962;2023-04-24T00:47:54;0.97;;;0.93;;
1062;SDS011;520;50.932;6.962;2023-04-24T00:50:26;0.80;;;0.80;;
1062;SDS011;520;50.932;6.962;2023-04-24T00:53:21;1.30;;;1.20;;
1062;SDS011;520;50.932;6.962;2023-04-24T00:56:02;1.20;;;1.10;;
1062;SDS011;520;50.932;6.962;2023-04-24T00:58:38;1.00;;;1.00;;
1062;SDS011;520;50.932;6.962;2023-04-24T01:01:23;0.93;;;0.90;;
1062;SDS011;520;50.932;6.962;2023-04-24T01:04:01;1.20;;;1.10;;
1062;SDS011;520;50.932;6.962;2023-04-24T01:06:48;1.33;;;1.23;;
1062;SDS011;520;50.932;6.962;2023-04-24T01:09:35;1.67;;;1.10;;
1062;SDS011;520;50.932;6.962;2023-04-24T01:12:14;0.73;;;0.73;;
1062;SDS011;520;50.932;6.962;2023-04-24T01:15:03;1.30;;;1.10;;
1062;SDS011;520;50.932;6.962;2023-04-24T01:17:36;1.00;;;1.00;;
1062;SDS011;520;50.932;6.962;2023-04-24T01:20:09;2.20;;;1.37;;
1062;SDS011;520;50.932;6.962;2023-04-24T01:22:48;1.43;;;1.33;;
1062;SDS011;520;50.932;6.962;2023-04-24T01:25:38;1.27;;;1.20;;
1062;SDS011;520;50.932;6.962;2023-04-24T01:28:26;1.37;;;1.07;;
1062;SDS011;520;50.932;6.962;2023-04-24T01:31:14;2.10;;;1.40;;
1062;SDS011;520;50.932;6.962;2023-04-24T01:33:53;1.20;;;1.10;;
1062;SDS011;520;50.932;6.962;2023-04-24T01:36:32;1.43;;;1.27;;
1062;SDS011;520;50.932;6.962;2023-04-24T01:39:15;2.43;;;1.53;;
1062;SDS011;520;50.932;6.962;2023-04-24T01:42:03;1.60;;;1.40;;
1062;SDS011;520;50.932;6.962;2023-04-24T01:44:44;2.70;;;2.50;;
1062;SDS011;520;50.932;6.962;2023-04-24T01:47:23;2.47;;;2.27;;
1062;SDS011;520;50.932;6.962;2023-04-24T01:50:04;2.80;;;2.60;;
1062;SDS011;520;50.932;6.962;2023-04-24T01:53:21;2.80;;;2.57;;
1062;SDS011;520;50.932;6.962;2023-04-24T01:55:48;3.17;;;2.97;;
1062;SDS011;520;50.932;6.962;2023-04-24T01:58:15;3.47;;;3.17;;
1062;SDS011;520;50.932;6.962;2023-04-24T02:00:42;3.47;;;3.17;;
1062;SDS011;520;50.932;6.962;2023-04-24T02:03:09;3.93;;;3.30;;
1062;SDS011;520;50.932;6.962;2023-04-24T02:05:37;3.17;;;2.60;;
1062;SDS011;520;50.932;6.962;2023-04-24T02:08:04;5.10;;;3.40;;
1062;SDS011;520;50.932;6.962;2023-04-24T02:10:31;4.40;;;3.57;;
1062;SDS011;520;50.932;6.962;2023-04-24T02:12:59;3.87;;;3.10;;
1062;SDS011;520;50.932;6.962;2023-04-24T02:15:26;5.53;;;3.83;;
1062;SDS011;520;50.932;6.962;2023-04-24T02:17:53;5.10;;;3.70;;
1062;SDS011;520;50.932;6.962;2023-04-24T02:20:20;5.90;;;3.57;;
1062;SDS011;520;50.932;6.962;2023-04-24T02:22:48;3.10;;;2.80;;
1062;SDS011;520;50.932;6.962;2023-04-24T02:25:14;4.73;;;3.57;;
1062;SDS011;520;50.932;6.962;2023-04-24T02:27:41;5.30;;;4.00;;
1062;SDS011;520;50.932;6.962;2023-04-24T02:30:09;5.10;;;3.50;;
1062;SDS011;520;50.932;6.962;2023-04-24T02:32:36;3.80;;;3.40;;
1062;SDS011;520;50.932;6.962;2023-04-24T02:35:03;4.40;;;3.80;;
1062;SDS011;520;50.932;6.962;2023-04-24T02:37:30;4.20;;;3.50;;
1062;SDS011;520;50.932;6.962;2023-04-24T02:39:57;3.77;;;3.37;;
1062;SDS011;520;50.932;6.962;2023-04-24T02:42:24;5.60;;;3.30;;
1062;SDS011;520;50.932;6.962;2023-04-24T02:44:51;3.47;;;3.13;;
1062;SDS011;520;50.932;6.962;2023-04-24T02:47:18;6.77;;;4.03;;
1062;SDS011;520;50.932;6.962;2023-04-24T02:49:45;4.87;;;3.30;;
1062;SDS011;520;50.932;6.962;2023-04-24T02:52:11;4.37;;;3.90;;
1062;SDS011;520;50.932;6.962;2023-04-24T02:54:39;5.33;;;3.87;;
1062;SDS011;520;50.932;6.962;2023-04-24T02:57:06;4.47;;;4.00;;
1062;SDS011;520;50.932;6.962;2023-04-24T02:59:33;8.53;;;4.43;;
1062;SDS011;520;50.932;6.962;2023-04-24T03:02:00;5.93;;;5.07;;
1062;SDS011;520;50.932;6.962;2023-04-24T03:04:27;4.07;;;3.50;;
1062;SDS011;520;50.932;6.962;2023-04-24T03:06:54;6.23;;;5.00;;
1062;SDS011;520;50.932;6.962;2023-04-24T03:09:21;5.60;;;5.10;;
1062;SDS011;520;50.932;6.962;2023-04-24T03:11:48;6.30;;;5.17;;
1062;SDS011;520;50.932;6.962;2023-04-24T03:14:15;5.10;;;4.70;;
1062;SDS011;520;50.932;6.962;2023-04-24T03:16:43;6.33;;;5.73;;
1062;SDS011;520;50.932;6.962;2023-04-24T03:19:10;5.67;;;5.03;;
1062;SDS011;520;50.932;6.962;2023-04-24T03:21:36;5.93;;;5.33;;
1062;SDS011;520;50.932;6.962;2023-04-24T03:24:07;4.93;;;4.40;;
1062;SDS011;520;50.932;6.962;2023-04-24T03:26:34;5.13;;;4.33;;
1062;SDS011;520;50.932;6.962;2023-04-24T03:29:01;5.30;;;4.73;;
1062;SDS011;520;50.932;6.962;2023-04-24T03:31:28;5.63;;;5.13;;
1062;SDS011;520;50.932;6.962;2023-04-24T03:33:56;5.30;;;4.80;;
1062;SDS011;520;50.932;6.962;2023-04-24T03:36:22;5.27;;;4.77;;
1062;SDS011;520;50.932;6.962;2023-04-24T03:38:49;6.63;;;4.83;;
1062;SDS011;520;50.932;6.962;2023-04-24T03:41:16;5.13;;;4.60;;
1062;SDS011;520;50.932;6.962;2023-04-24T03:43:43;6.60;;;5.57;;
1062;SDS011;520;50.932;6.962;2023-04-24T03:46:10;5.80;;;5.30;;
1062;SDS011;520;50.932;6.962;2023-04-24T03:48:36;6.03;;;5.10;;
1062;SDS011;520;50.932;6.962;2023-04-24T03:51:03;5.43;;;4.93;;
1062;SDS011;520;50.932;6.962;2023-04-24T03:53:30;6.10;;;5.50;;
1062;SDS011;520;50.932;6.962;2023-04-24T03:55:57;5.20;;;4.70;;
1062;SDS011;520;50.932;6.962;2023-04-24T03:58:24;7.23;;;5.33;;
1062;SDS011;520;50.932;6.962;2023-04-24T04:00:51;6.00;;;5.33;;
1062;SDS011;520;50.932;6.962;2023-04-24T04:03:18;5.87;;;5.30;;
1062;SDS011;520;50.932;6.962;2023-04-24T04:05:45;5.97;;;5.47;;
1062;SDS011;520;50.932;6.962;2023-04-24T04:10:52;6.83;;;5.37;;
1062;SDS011;520;50.932;6.962;2023-04-24T04:13:33;6.67;;;5.40;;
1062;SDS011;520;50.932;6.962;2023-04-24T04:16:06;4.97;;;4.47;;
1062;SDS011;520;50.932;6.962;2023-04-24T04:18:49;6.17;;;5.03;;
1062;SDS011;520;50.932;6.962;2023-04-24T04:21:36;5.33;;;4.83;;
1062;SDS011;520;50.932;6.962;2023-04-24T04:24:22;6.83;;;4.23;;
1062;SDS011;520;50.932;6.962;2023-04-24T04:27:08;7.47;;;5.40;;
1062;SDS011;520;50.932;6.962;2023-04-24T04:29:46;5.77;;;4.73;;
1062;SDS011;520;50.932;6.962;2023-04-24T04:32:20;5.50;;;5.00;;
1062;SDS011;520;50.932;6.962;2023-04-24T04:35:07;5.20;;;4.70;;
1062;SDS011;520;50.932;6.962;2023-04-24T04:40:18;5.33;;;4.80;;
1062;SDS011;520;50.932;6.962;2023-04-24T04:43:09;5.17;;;4.67;;
1062;SDS011;520;50.932;6.962;2023-04-24T04:45:53;6.63;;;4.00;;
1062;SDS011;520;50.932;6.962;2023-04-24T04:48:40;4.33;;;3.70;;
1062;SDS011;520;50.932;6.962;2023-04-24T04:51:22;4.13;;;3.73;;
1062;SDS011;520;50.932;6.962;2023-04-24T04:54:28;5.00;;;3.20;;
1062;SDS011;520;50.932;6.962;2023-04-24T04:57:02;3.50;;;3.20;;
1062;SDS011;520;50.932;6.962;2023-04-24T05:02:29;3.80;;;3.40;;
1062;SDS011;520;50.932;6.962;2023-04-24T05:05:38;5.63;;;3.03;;
1062;SDS011;520;50.932;6.962;2023-04-24T05:08:16;2.50;;;2.23;;
1062;SDS011;520;50.932;6.962;2023-04-24T05:14:16;3.40;;;2.50;;
1062;SDS011;520;50.932;6.962;2023-04-24T05:17:35;2.30;;;2.10;;
1062;SDS011;520;50.932;6.962;2023-04-24T05:20:19;3.10;;;2.07;;
1062;SDS011;520;50.932;6.962;2023-04-24T05:26:24;2.30;;;2.10;;
1062;SDS011;520;50.932;6.962;2023-04-24T05:29:14;2.67;;;1.90;;
1062;SDS011;520;50.932;6.962;2023-04-24T05:34:24;2.00;;;1.90;;
1062;SDS011;520;50.932;6.962;2023-04-24T05:37:03;3.13;;;2.03;;
1062;SDS011;520;50.932;6.962;2023-04-24T05:39:37;1.70;;;1.60;;
1062;SDS011;520;50.932;6.962;2023-04-24T05:42:33;3.03;;;2.73;;
1062;SDS011;520;50.932;6.962;2023-04-24T05:45:22;2.50;;;2.30;;
1062;SDS011;520;50.932;6.962;2023-04-24T05:48:29;3.83;;;2.30;;
1062;SDS011;520;50.932;6.962;2023-04-24T05:56:57;2.80;;;2.60;;
1062;SDS011;520;50.932;6.962;2023-04-24T06:02:25;2.30;;;1.83;;
1062;SDS011;520;50.932;6.962;2023-04-24T06:05:03;3.23;;;2.20;;
1062;SDS011;520;50.932;6.962;2023-04-24T06:11:15;2.50;;;2.30;;
1062;SDS011;520;50.932;6.962;2023-04-24T06:13:46;2.70;;;2.10;;
1062;SDS011;520;50.932;6.962;2023-04-24T06:16:38;2.37;;;2.17;;
1062;SDS011;520;50.932;6.962;2023-04-24T06:19:23;3.53;;;2.67;;
1062;SDS011;520;50.932;6.962;2023-04-24T06:22:12;3.33;;;2.63;;
1062;SDS011;520;50.932;6.962;2023-04-24T06:25:04;2.23;;;1.93;;
1062;SDS011;520;50.932;6.962;2023-04-24T06:27:47;2.60;;;2.10;;
1062;SDS011;520;50.932;6.962;2023-04-24T06:30:49;2.80;;;2.23;;
1062;SDS011;520;50.932;6.962;2023-04-24T06:36:36;0.93;;;0.80;;
1062;SDS011;520;50.932;6.962;2023-04-24T06:39:23;0.87;;;0.87;;
1062;SDS011;520;50.932;6.962;2023-04-24T06:42:08;1.27;;;1.10;;
1062;SDS011;520;50.932;6.962;2023-04-24T06:45:17;1.30;;;1.20;;
1062;SDS011;520;50.932;6.962;2023-04-24T06:47:56;0.97;;;0.93;;
1062;SDS011;520;50.932;6.962;2023-04-24T06:50:27;1.30;;;1.20;;
1062;SDS011;520;50.932;6.962;2023-04-24T06:53:03;1.00;;;1.00;;
1062;SDS011;520;50.932;6.962;2023-04-24T06:55:40;1.00;;;1.00;;
1062;SDS011;520;50.932;6.962;2023-04-24T06:58:29;0.87;;;0.87;;
1062;SDS011;520;50.932;6.962;2023-04-24T07:01:01;0.80;;;0.80;;
1062;SDS011;520;50.932;6.962;2023-04-24T07:03:56;0.80;;;0.80;;
1062;SDS011;520;50.932;6.962;2023-04-24T07:06:28;0.80;;;0.80;;
1062;SDS011;520;50.932;6.962;2023-04-24T07:09:00;1.13;;;1.03;;
1062;SDS011;520;50.932;6.962;2023-04-24T07:11:37;0.80;;;0.80;;
1062;SDS011;520;50.932;6.962;2023-04-24T07:14:13;0.80;;;0.80;;
1062;SDS011;520;50.932;6.962;2023-04-24T07:16:49;1.03;;;0.83;;
1062;SDS011;520;50.932;6.962;2023-04-24T07:19:47;0.70;;;0.63;;
1062;SDS011;520;50.932;6.962;2023-04-24T07:22:20;0.93;;;0.77;;
1062;SDS011;520;50.932;6.962;2023-04-24T07:24:57;0.70;;;0.70;;
1062;SDS011;520;50.932;6.962;2023-04-24T07:27:28;1.23;;;0.73;;
1062;SDS011;520;50.932;6.962;2023-04-24T07:30:06;0.97;;;0.97;;
1062;SDS011;520;50.932;6.962;2023-04-24T07:32:47;0.53;;;0.53;;
1062;SDS011;520;50.932;6.962;2023-04-24T07:35:41;0.70;;;0.70;;
1062;SDS011;520;50.932;6.962;2023-04-24T07:38:49;1.10;;;0.93;;
1062;SDS011;520;50.932;6.962;2023-04-24T07:41:46;0.60;;;0.60;;
1062;SDS011;520;50.932;6.962;2023-04-24T07:44:48;0.50;;;0.50;;
1062;SDS011;520;50.932;6.962;2023-04-24T07:47:48;0.60;;;0.60;;
1062;SDS011;520;50.932;6.962;2023-04-24T07:50:37;0.40;;;0.37;;
1062;SDS011;520;50.932;6.962;2023-04-24T07:53:20;0.50;;;0.50;;
1062;SDS011;520;50.932;6.962;2023-04-24T07:59:13;0.57;;;0.57;;
1062;SDS011;520;50.932;6.962;2023-04-24T08:01:57;0.50;;;0.50;;
1062;SDS011;520;50.932;6.962;2023-04-24T08:04:25;0.60;;;0.60;;
1062;SDS011;520;50.932;6.962;2023-04-24T08:06:59;1.47;;;1.37;;
1062;SDS011;520;50.932;6.962;2023-04-24T08:09:32;0.50;;;0.50;;
1062;SDS011;520;50.932;6.962;2023-04-24T08:12:09;0.80;;;0.70;;
1062;SDS011;520;50.932;6.962;2023-04-24T08:14:59;0.60;;;0.60;;
1062;SDS011;520;50.932;6.962;2023-04-24T08:17:37;0.40;;;0.40;;
1062;SDS011;520;50.932;6.962;2023-04-24T08:20:12;0.47;;;0.40;;
1062;SDS011;520;50.932;6.962;2023-04-24T08:22:52;0.67;;;0.57;;
1062;SDS011;520;50.932;6.962;2023-04-24T08:25:27;0.50;;;0.40;;
1062;SDS011;520;50.932;6.962;2023-04-24T08:27:59;0.47;;;0.47;;
1062;SDS011;520;50.932;6.962;2023-04-24T08:30:26;0.50;;;0.50;;
1062;SDS011;520;50.932;6.962;2023-04-24T08:32:56;0.40;;;0.40;;
1062;SDS011;520;50.932;6.962;2023-04-24T08:35:32;0.53;;;0.50;;
1062;SDS011;520;50.932;6.962;2023-04-24T08:37:58;0.40;;;0.40;;
1062;SDS011;520;50.932;6.962;2023-04-24T08:40:28;0.40;;;0.40;;
1062;SDS011;520;50.932;6.962;2023-04-24T08:43:15;0.60;;;0.60;;
1062;SDS011;520;50.932;6.962;2023-04-24T08:45:47;0.40;;;0.40;;
1062;SDS011;520;50.932;6.962;2023-04-24T08:48:37;0.57;;;0.57;;
1062;SDS011;520;50.932;6.962;2023-04-24T08:51:14;1.70;;;0.70;;
1062;SDS011;520;50.932;6.962;2023-04-24T08:53:51;2.20;;;0.80;;
1062;SDS011;520;50.932;6.962;2023-04-24T08:56:33;0.70;;;0.60;;
1062;SDS011;520;50.932;6.962;2023-04-24T08:59:15;0.60;;;0.60;;
1062;SDS011;520;50.932;6.962;2023-04-24T09:02:02;0.73;;;0.53;;
1062;SDS011;520;50.932;6.962;2023-04-24T09:04:51;0.50;;;0.50;;
1062;SDS011;520;50.932;6.962;2023-04-24T09:07:33;1.90;;;1.80;;
1062;SDS011;520;50.932;6.962;2023-04-24T09:10:03;2.63;;;0.90;;
1062;SDS011;520;50.932;6.962;2023-04-24T09:12:56;1.00;;;1.00;;
1062;SDS011;520;50.932;6.962;2023-04-24T09:15:28;0.90;;;0.70;;
1062;SDS011;520;50.932;6.962;2023-04-24T09:18:05;0.97;;;0.87;;
1062;SDS011;520;50.932;6.962;2023-04-24T09:20:34;1.00;;;0.80;;
1062;SDS011;520;50.932;6.962;2023-04-24T09:23:43;1.57;;;1.40;;
1062;SDS011;520;50.932;6.962;2023-04-24T09:26:30;1.70;;;1.60;;
1062;SDS011;520;50.932;6.962;2023-04-24T09:29:35;1.57;;;1.43;;
1062;SDS011;520;50.932;6.962;2023-04-24T09:32:25;2.77;;;1.67;;
1062;SDS011;520;50.932;6.962;2023-04-24T09:35:09;1.90;;;1.43;;
1062;SDS011;520;50.932;6.962;2023-04-24T09:38:03;1.30;;;1.20;;
1062;SDS011;520;50.932;6.962;2023-04-24T09:40:35;2.53;;;1.93;;
1062;SDS011;520;50.932;6.962;2023-04-24T09:43:20;1.90;;;1.70;;
1062;SDS011;520;50.932;6.962;2023-04-24T09:45:50;1.93;;;1.77;;
1062;SDS011;520;50.932;6.962;2023-04-24T09:48:33;2.20;;;2.00;;
1062;SDS011;520;50.932;6.962;2023-04-24T09:54:21;1.83;;;1.73;;
1062;SDS011;520;50.932;6.962;2023-04-24T09:56:52;1.77;;;1.60;;
1062;SDS011;520;50.932;6.962;2023-04-24T09:59:27;2.83;;;1.90;;
1062;SDS011;520;50.932;6.962;2023-04-24T10:01:56;2.00;;;1.90;;
1062;SDS011;520;50.932;6.962;2023-04-24T10:04:54;2.80;;;1.93;;
1062;SDS011;520;50.932;6.962;2023-04-24T10:07:32;1.73;;;1.63;;
1062;SDS011;520;50.932;6.962;2023-04-24T10:10:08;1.97;;;1.87;;
1062;SDS011;520;50.932;6.962;2023-04-24T10:12:41;2.23;;;1.77;;
1062;SDS011;520;50.932;6.962;2023-04-24T10:15:19;1.90;;;1.70;;
1062;SDS011;520;50.932;6.962;2023-04-24T10:17:59;4.43;;;1.80;;
1062;SDS011;520;50.932;6.962;2023-04-24T10:20:37;2.13;;;1.57;;
1062;SDS011;520;50.932;6.962;2023-04-24T10:23:12;2.17;;;1.97;;
1062;SDS011;520;50.932;6.962;2023-04-24T10:25:54;1.30;;;1.20;;
1062;SDS011;520;50.932;6.962;2023-04-24T10:28:37;1.50;;;1.20;;
1062;SDS011;520;50.932;6.962;2023-04-24T10:31:10;1.33;;;1.23;;
1062;SDS011;520;50.932;6.962;2023-04-24T10:33:51;1.73;;;1.27;;
1062;SDS011;520;50.932;6.962;2023-04-24T10:36:34;1.80;;;1.53;;
1062;SDS011;520;50.932;6.962;2023-04-24T10:39:14;2.60;;;1.10;;
1062;SDS011;520;50.932;6.962;2023-04-24T10:41:57;1.27;;;1.17;;
1062;SDS011;520;50.932;6.962;2023-04-24T10:44:48;1.53;;;1.43;;
1062;SDS011;520;50.932;6.962;2023-04-24T10:47:23;1.47;;;1.10;;
1062;SDS011;520;50.932;6.962;2023-04-24T10:52:49;1.77;;;1.67;;
1062;SDS011;520;50.932;6.962;2023-04-24T11:02:19;1.50;;;1.40;;
1062;SDS011;520;50.932;6.962;2023-04-24T11:05:06;1.73;;;1.40;;
1062;SDS011;520;50.932;6.962;2023-04-24T11:11:50;1.60;;;1.50;;
1062;SDS011;520;50.932;6.962;2023-04-24T11:23:36;6.50;;;1.73;;
1062;SDS011;520;50.932;6.962;2023-04-24T11:26:37;3.27;;;1.97;;
1062;SDS011;520;50.932;6.962;2023-04-24T11:29:21;4.47;;;1.60;;
1062;SDS011;520;50.932;6.962;2023-04-24T11:35:34;1.60;;;1.43;;
1062;SDS011;520;50.932;6.962;2023-04-24T11:38:23;1.67;;;1.53;;
1062;SDS011;520;50.932;6.962;2023-04-24T11:41:02;1.60;;;1.50;;
1062;SDS011;520;50.932;6.962;2023-04-24T11:43:51;1.70;;;1.60;;
1062;SDS011;520;50.932;6.962;2023-04-24T11:46:46;2.43;;;1.83;;
1062;SDS011;520;50.932;6.962;2023-04-24T11:49:27;1.57;;;1.47;;
1062;SDS011;520;50.932;6.962;2023-04-24T11:52:09;4.33;;;1.77;;
1062;SDS011;520;50.932;6.962;2023-04-24T11:54:51;1.70;;;1.60;;
1062;SDS011;520;50.932;6.962;2023-04-24T12:00:27;1.20;;;1.10;;
1062;SDS011;520;50.932;6.962;2023-04-24T12:03:23;1.87;;;1.67;;
1062;SDS011;520;50.932;6.962;2023-04-24T12:06:11;1.73;;;1.63;;
1062;SDS011;520;50.932;6.962;2023-04-24T12:08:59;1.60;;;1.40;;
1062;SDS011;520;50.932;6.962;2023-04-24T12:11:52;1.40;;;1.20;;
1062;SDS011;520;50.932;6.962;2023-04-24T12:14:54;1.60;;;1.47;;
1062;SDS011;520;50.932;6.962;2023-04-24T12:20:45;1.60;;;1.50;;
1062;SDS011;520;50.932;6.962;2023-04-24T12:23:54;2.10;;;1.53;;
1062;SDS011;520;50.932;6.962;2023-04-24T12:26:27;1.50;;;1.40;;
1062;SDS011;520;50.932;6.962;2023-04-24T12:29:23;1.90;;;1.80;;
1062;SDS011;520;50.932;6.962;2023-04-24T12:32:16;2.23;;;1.90;;
1062;SDS011;520;50.932;6.962;2023-04-24T12:35:06;3.00;;;2.13;;
1062;SDS011;520;50.932;6.962;2023-04-24T12:37:42;1.83;;;1.67;;
1062;SDS011;520;50.932;6.962;2023-04-24T12:40:24;2.27;;;2.07;;
1062;SDS011;520;50.932;6.962;2023-04-24T12:43:12;1.77;;;1.60;;
1062;SDS011;520;50.932;6.962;2023-04-24T12:45:52;2.00;;;1.90;;
1062;SDS011;520;50.932;6.962;2023-04-24T12:48:28;1.63;;;1.50;;
1062;SDS011;520;50.932;6.962;2023-04-24T12:51:15;2.30;;;1.90;;
1062;SDS011;520;50.932;6.962;2023-04-24T12:54:09;2.60;;;2.40;;
1062;SDS011;520;50.932;6.962;2023-04-24T12:56:45;2.07;;;1.87;;
1062;SDS011;520;50.932;6.962;2023-04-24T12:59:28;3.37;;;2.10;;
1062;SDS011;520;50.932;6.962;2023-04-24T13:02:19;2.30;;;2.10;;
1062;SDS011;520;50.932;6.962;2023-04-24T13:04:48;2.03;;;1.83;;
1062;SDS011;520;50.932;6.962;2023-04-24T13:07:40;3.30;;;2.27;;
1062;SDS011;520;50.932;6.962;2023-04-24T13:10:20;5.20;;;2.33;;
1062;SDS011;520;50.932;6.962;2023-04-24T13:12:58;4.00;;;2.90;;
1062;SDS011;520;50.932;6.962;2023-04-24T13:15:40;3.77;;;2.57;;
1062;SDS011;520;50.932;6.962;2023-04-24T13:18:13;1.97;;;1.70;;
1062;SDS011;520;50.932;6.962;2023-04-24T13:21:08;3.40;;;2.67;;
1062;SDS011;520;50.932;6.962;2023-04-24T13:24:01;2.27;;;2.03;;
1062;SDS011;520;50.932;6.962;2023-04-24T13:26:52;2.20;;;2.00;;
1062;SDS011;520;50.932;6.962;2023-04-24T13:29:40;2.43;;;1.73;;
1062;SDS011;520;50.932;6.962;2023-04-24T13:32:50;2.17;;;1.97;;
1062;SDS011;520;50.932;6.962;2023-04-24T13:39:24;2.53;;;2.30;;
1062;SDS011;520;50.932;6.962;2023-04-24T13:42:44;2.57;;;2.40;;
1062;SDS011;520;50.932;6.962;2023-04-24T13:45:50;2.13;;;2.00;;
1062;SDS011;520;50.932;6.962;2023-04-24T13:48:27;2.43;;;2.23;;
1062;SDS011;520;50.932;6.962;2023-04-24T13:51:37;2.40;;;2.10;;
1062;SDS011;520;50.932;6.962;2023-04-24T13:54:12;3.67;;;2.17;;
1062;SDS011;520;50.932;6.962;2023-04-24T13:57:03;2.53;;;2.30;;
1062;SDS011;520;50.932;6.962;2023-04-24T13:59:34;2.20;;;2.10;;
1062;SDS011;520;50.932;6.962;2023-04-24T14:02:13;2.77;;;2.30;;
1062;SDS011;520;50.932;6.962;2023-04-24T14:05:05;2.97;;;2.20;;
1062;SDS011;520;50.932;6.962;2023-04-24T14:08:11;2.33;;;2.10;;
1062;SDS011;520;50.932;6.962;2023-04-24T14:11:27;2.67;;;2.30;;
1062;SDS011;520;50.932;6.962;2023-04-24T14:14:33;1.90;;;1.70;;
1062;SDS011;520;50.932;6.962;2023-04-24T14:17:49;2.10;;;1.90;;
1062;SDS011;520;50.932;6.962;2023-04-24T14:21:07;3.73;;;2.97;;
1062;SDS011;520;50.932;6.962;2023-04-24T14:27:17;2.10;;;1.90;;
1062;SDS011;520;50.932;6.962;2023-04-24T14:30:05;2.50;;;1.83;;
1062;SDS011;520;50.932;6.962;2023-04-24T14:33:20;2.60;;;1.97;;
1062;SDS011;520;50.932;6.962;2023-04-24T14:35:52;1.97;;;1.87;;
1062;SDS011;520;50.932;6.962;2023-04-24T14:38:46;2.03;;;1.93;;
1062;SDS011;520;50.932;6.962;2023-04-24T14:41:31;2.23;;;2.03;;
1062;SDS011;520;50.932;6.962;2023-04-24T14:47:07;4.90;;;2.10;;
1062;SDS011;520;50.932;6.962;2023-04-24T14:49:56;2.30;;;2.17;;
1062;SDS011;520;50.932;6.962;2023-04-24T14:52:56;2.43;;;2.10;;
1062;SDS011;520;50.932;6.962;2023-04-24T14:56:16;2.70;;;2.20;;
1062;SDS011;520;50.932;6.962;2023-04-24T14:59:16;2.30;;;2.10;;
1062;SDS011;520;50.932;6.962;2023-04-24T15:02:00;2.60;;;2.10;;
1062;SDS011;520;50.932;6.962;2023-04-24T15:04:44;3.37;;;2.33;;
1062;SDS011;520;50.932;6.962;2023-04-24T15:07:37;2.30;;;2.10;;
1062;SDS011;520;50.932;6.962;2023-04-24T15:10:38;2.00;;;1.90;;
1062;SDS011;520;50.932;6.962;2023-04-24T15:13:08;2.50;;;2.13;;
1062;SDS011;520;50.932;6.962;2023-04-24T15:15:43;2.13;;;1.70;;
1062;SDS011;520;50.932;6.962;2023-04-24T15:18:15;2.30;;;2.10;;
1062;SDS011;520;50.932;6.962;2023-04-24T15:20:49;3.27;;;1.70;;
1062;SDS011;520;50.932;6.962;2023-04-24T15:23:24;2.33;;;1.87;;
1062;SDS011;520;50.932;6.962;2023-04-24T15:25:56;1.70;;;1.60;;
1062;SDS011;520;50.932;6.962;2023-04-24T15:28:53;2.20;;;2.00;;
1062;SDS011;520;50.932;6.962;2023-04-24T15:31:35;1.53;;;1.40;;
1062;SDS011;520;50.932;6.962;2023-04-24T15:34:40;2.23;;;2.03;;
1062;SDS011;520;50.932;6.962;2023-04-24T15:37:22;2.90;;;2.00;;
1062;SDS011;520;50.932;6.962;2023-04-24T15:40:20;1.83;;;1.73;;
1062;SDS011;520;50.932;6.962;2023-04-24T15:43:38;2.90;;;1.60;;
1062;SDS011;520;50.932;6.962;2023-04-24T15:46:35;1.67;;;1.53;;
1062;SDS011;520;50.932;6.962;2023-04-24T15:49:38;1.70;;;1.60;;
1062;SDS011;520;50.932;6.962;2023-04-24T15:52:35;2.37;;;2.17;;
1062;SDS011;520;50.932;6.962;2023-04-24T15:55:13;2.00;;;1.90;;
1062;SDS011;520;50.932;6.962;2023-04-24T16:01:33;2.40;;;1.70;;
1062;SDS011;520;50.932;6.962;2023-04-24T16:07:46;2.60;;;2.00;;
1062;SDS011;520;50.932;6.962;2023-04-24T16:16:20;2.27;;;2.10;;
1062;SDS011;520;50.932;6.962;2023-04-24T16:24:51;2.20;;;2.00;;
1062;SDS011;520;50.932;6.962;2023-04-24T16:27:46;1.90;;;1.80;;
1062;SDS011;520;50.932;6.962;2023-04-24T16:30:49;1.60;;;1.50;;
1062;SDS011;520;50.932;6.962;2023-04-24T16:33:35;2.50;;;1.77;;
1062;SDS011;520;50.932;6.962;2023-04-24T16:42:12;3.60;;;2.80;;
1062;SDS011;520;50.932;6.962;2023-04-24T16:48:22;3.43;;;2.30;;
1062;SDS011;520;50.932;6.962;2023-04-24T16:51:12;2.60;;;1.70;;
1062;SDS011;520;50.932;6.962;2023-04-24T16:54:19;1.63;;;1.40;;
1062;SDS011;520;50.932;6.962;2023-04-24T16:57:13;1.63;;;1.53;;
1062;SDS011;520;50.932;6.962;2023-04-24T17:00:35;2.10;;;1.70;;
1062;SDS011;520;50.932;6.962;2023-04-24T17:06:39;2.67;;;2.23;;
1062;SDS011;520;50.932;6.962;2023-04-24T17:09:22;1.80;;;1.70;;
1062;SDS011;520;50.932;6.962;2023-04-24T17:11:51;1.80;;;1.70;;
1062;SDS011;520;50.932;6.962;2023-04-24T17:15:11;1.60;;;1.50;;
1062;SDS011;520;50.932;6.962;2023-04-24T17:18:18;1.57;;;1.47;;
1062;SDS011;520;50.932;6.962;2023-04-24T17:23:50;1.27;;;1.17;;
1062;SDS011;520;50.932;6.962;2023-04-24T17:27:10;1.77;;;1.67;;
1062;SDS011;520;50.932;6.962;2023-04-24T17:29:55;2.10;;;2.00;;
1062;SDS011;520;50.932;6.962;2023-04-24T17:32:51;1.60;;;1.23;;
1062;SDS011;520;50.932;6.962;2023-04-24T17:36:06;1.67;;;1.13;;
1062;SDS011;520;50.932;6.962;2023-04-24T17:39:07;1.20;;;1.10;;
1062;SDS011;520;50.932;6.962;2023-04-24T17:42:24;1.10;;;1.10;;
1062;SDS011;520;50.932;6.962;2023-04-24T17:45:20;0.80;;;0.80;;
1062;SDS011;520;50.932;6.962;2023-04-24T17:48:40;1.20;;;1.10;;
1062;SDS011;520;50.932;6.962;2023-04-24T17:51:42;2.43;;;1.70;;
1062;SDS011;520;50.932;6.962;2023-04-24T17:54:30;1.40;;;1.27;;
1062;SDS011;520;50.932;6.962;2023-04-24T17:58:04;1.43;;;1.10;;
1062;SDS011;520;50.932;6.962;2023-04-24T18:00:57;1.10;;;1.00;;
1062;SDS011;520;50.932;6.962;2023-04-24T18:04:05;1.30;;;1.20;;
1062;SDS011;520;50.932;6.962;2023-04-24T18:07:12;1.33;;;1.23;;
1062;SDS011;520;50.932;6.962;2023-04-24T18:09:56;2.20;;;1.93;;
1062;SDS011;520;50.932;6.962;2023-04-24T18:12:55;1.13;;;1.10;;
1062;SDS011;520;50.932;6.962;2023-04-24T18:15:32;1.10;;;1.10;;
1062;SDS011;520;50.932;6.962;2023-04-24T18:18:12;1.53;;;1.00;;
1062;SDS011;520;50.932;6.962;2023-04-24T18:21:20;0.90;;;0.90;;
1062;SDS011;520;50.932;6.962;2023-04-24T18:24:04;1.30;;;0.90;;
1062;SDS011;520;50.932;6.962;2023-04-24T18:26:43;1.20;;;1.10;;
1062;SDS011;520;50.932;6.962;2023-04-24T18:32:53;0.80;;;0.80;;
1062;SDS011;520;50.932;6.962;2023-04-24T18:41:10;1.30;;;1.20;;
1062;SDS011;520;50.932;6.962;2023-04-24T18:44:59;1.20;;;1.10;;
1062;SDS011;520;50.932;6.962;2023-04-24T18:47:46;0.80;;;0.80;;
1062;SDS011;520;50.932;6.962;2023-04-24T18:50:45;2.00;;;1.20;;
1062;SDS011;520;50.932;6.962;2023-04-24T18:53:41;0.83;;;0.83;;
1062;SDS011;520;50.932;6.962;2023-04-24T18:59:27;1.87;;;1.00;;
1062;SDS011;520;50.932;6.962;2023-04-24T19:03:15;0.90;;;0.90;;
1062;SDS011;520;50.932;6.962;2023-04-24T19:06:06;1.43;;;0.90;;
1062;SDS011;520;50.932;6.962;2023-04-24T19:08:53;1.13;;;1.10;;
1062;SDS011;520;50.932;6.962;2023-04-24T19:11:56;1.20;;;1.10;;
1062;SDS011;520;50.932;6.962;2023-04-24T19:14:47;1.17;;;0.93;;
1062;SDS011;520;50.932;6.962;2023-04-24T19:17:44;0.97;;;0.97;;
1062;SDS011;520;50.932;6.962;2023-04-24T19:20:37;1.40;;;1.20;;
1062;SDS011;520;50.932;6.962;2023-04-24T19:23:19;2.07;;;1.20;;